Aviation Digital Data Service (ADDS)

Output produced by METARs form (0649 UTC 17 January 2017)
found at http://aviationweather.gov/adds/metars/
 
KFRG 170553Z AUTO 24008KT 10SM OVC070 04/M02 A3027 RMK AO2 SLP251 T00441022 10044 20022 58016
KISP 170556Z AUTO 23007KT 10SM OVC080 04/M02 A3026 RMK AO2 SLP247 T00391022 10039 20000 58017 $
KISP 170609Z 1706/1806 24007KT P6SM OVC080 
     FM171300 VRB02KT P6SM SCT035 OVC070 
     FM171600 VRB03KT P6SM BKN025 OVC050 
     FM171900 12007KT 5SM -RA BKN020 OVC040 
     FM172100 11007KT 2SM -RA BR BKN008 OVC015 
     FM180100 09007KT 1SM -RA BR OVC005
       
KJFK 170551Z 24012KT 10SM OVC070 05/M04 A3030 RMK AO2 SLP258 T00501039 10050 20033 56017
KJFK 170609Z 1706/1812 24010KT P6SM OVC070 
     FM171100 VRB04KT P6SM SCT040 OVC060 
     FM171400 VRB03KT 5SM -RA BKN020 OVC040 
     FM171900 12007KT 2SM -RA BR BKN008 OVC015 
     FM180100 09008KT 1SM -RA BR OVC005 
     FM180600 VRB04KT 3SM -RA BR BKN008
       
KBDR 170552Z AUTO 23003KT 10SM OVC085 04/M01 A3025 RMK AO2 SLP244 T00391006 10044 20033 58020
KBDR 170609Z 1706/1806 23005KT P6SM OVC090 
     FM171200 VRB02KT P6SM SCT035 OVC070 
     FM171700 VRB04KT P6SM BKN025 OVC050 
     FM171900 09006KT 5SM -RA BKN020 OVC040 
     FM172100 08007KT 2SM -RA BR BKN008 OVC015 
     FM180100 06006KT 1SM -RA BR OVC005